createdAt,value
2022-11-10T00:01:10.657Z,8.20
2022-11-10T00:03:40.332Z,8.30
2022-11-10T00:06:09.944Z,7.70
2022-11-10T00:08:38.375Z,7.70
2022-11-10T00:11:09.571Z,8.30
2022-11-10T00:14:01.504Z,8.00
2022-11-10T00:16:47.541Z,8.00
2022-11-10T00:19:15.336Z,8.00
2022-11-10T00:21:42.849Z,7.80
2022-11-10T00:24:10.002Z,7.50
2022-11-10T00:26:37.407Z,8.30
2022-11-10T00:29:04.572Z,8.40
2022-11-10T00:31:31.914Z,7.50
2022-11-10T00:33:59.399Z,7.40
2022-11-10T00:36:26.980Z,8.30
2022-11-10T00:38:54.196Z,7.80
2022-11-10T00:41:22.246Z,8.50
2022-11-10T00:43:50.189Z,8.30
2022-11-10T00:46:17.638Z,8.10
2022-11-10T00:48:45.118Z,8.30
2022-11-10T00:51:25.901Z,8.60
2022-11-10T00:53:54.206Z,8.60
2022-11-10T00:56:23.486Z,8.50
2022-11-10T00:58:50.996Z,8.20
2022-11-10T01:01:21.330Z,7.80
2022-11-10T01:03:48.524Z,8.20
2022-11-10T01:06:20.167Z,8.20
2022-11-10T01:08:48.232Z,8.40
2022-11-10T01:11:19.994Z,8.10
2022-11-10T01:13:47.584Z,8.10
2022-11-10T01:16:24.932Z,8.20
2022-11-10T01:18:59.429Z,8.30
2022-11-10T01:21:29.611Z,7.90
2022-11-10T01:23:57.161Z,8.50
2022-11-10T01:26:26.128Z,8.40
2022-11-10T01:28:53.773Z,8.30
2022-11-10T01:31:22.837Z,8.40
2022-11-10T01:33:50.724Z,8.50
2022-11-10T01:36:18.159Z,8.10
2022-11-10T01:38:46.874Z,8.20
2022-11-10T01:41:16.097Z,8.10
2022-11-10T01:43:43.997Z,8.10
2022-11-10T01:46:14.236Z,8.50
2022-11-10T01:48:55.757Z,8.30
2022-11-10T01:51:37.858Z,8.20
2022-11-10T01:54:32.347Z,8.30
2022-11-10T01:57:05.346Z,8.20
2022-11-10T01:59:42.579Z,8.30
2022-11-10T02:02:43.245Z,8.40
2022-11-10T02:05:10.790Z,8.20
2022-11-10T02:07:39.852Z,8.70
2022-11-10T02:10:17.379Z,7.70
2022-11-10T02:12:45.646Z,8.30
2022-11-10T02:15:16.842Z,8.70
2022-11-10T02:17:47.350Z,8.50
2022-11-10T02:20:18.656Z,8.70
2022-11-10T02:22:46.181Z,8.20
2022-11-10T02:25:23.228Z,8.60
2022-11-10T02:27:50.980Z,8.40
2022-11-10T02:30:18.755Z,8.70
2022-11-10T02:32:45.795Z,8.20
2022-11-10T02:35:13.027Z,8.00
2022-11-10T02:37:40.250Z,8.60
2022-11-10T02:40:08.599Z,8.40
2022-11-10T02:42:35.707Z,8.30
2022-11-10T02:45:03.082Z,8.30
2022-11-10T02:47:30.458Z,8.70
2022-11-10T02:49:57.804Z,8.30
2022-11-10T02:52:25.043Z,8.60
2022-11-10T02:54:52.479Z,8.80
2022-11-10T02:57:19.761Z,8.70
2022-11-10T02:59:46.903Z,8.30
2022-11-10T03:02:14.840Z,8.60
2022-11-10T03:04:42.437Z,8.50
2022-11-10T03:07:09.897Z,8.70
2022-11-10T03:09:37.385Z,8.60
2022-11-10T03:12:04.859Z,8.60
2022-11-10T03:14:31.924Z,8.60
2022-11-10T03:16:59.215Z,7.80
2022-11-10T03:19:26.285Z,8.30
2022-11-10T03:21:53.355Z,8.60
2022-11-10T03:24:20.970Z,8.50
2022-11-10T03:26:48.071Z,8.60
2022-11-10T03:29:15.488Z,8.50
2022-11-10T03:31:42.983Z,8.50
2022-11-10T03:34:10.582Z,8.60
2022-11-10T03:36:37.801Z,8.50
2022-11-10T03:39:05.202Z,8.50
2022-11-10T03:41:32.390Z,8.40
2022-11-10T03:43:59.521Z,8.30
2022-11-10T03:46:26.718Z,8.80
2022-11-10T03:48:57.123Z,8.50
2022-11-10T03:51:24.293Z,8.50
2022-11-10T03:53:51.465Z,8.70
2022-11-10T03:56:18.635Z,8.50
2022-11-10T03:58:46.217Z,8.60
2022-11-10T04:01:13.809Z,8.30
2022-11-10T04:03:41.239Z,8.90
2022-11-10T04:06:30.183Z,8.50
2022-11-10T04:09:00.391Z,8.60
2022-11-10T04:11:48.884Z,8.50
2022-11-10T04:14:35.512Z,8.60
2022-11-10T04:17:03.747Z,8.50
2022-11-10T04:19:31.663Z,8.80
2022-11-10T04:21:58.835Z,8.80
2022-11-10T04:24:26.195Z,8.70
2022-11-10T04:26:53.414Z,8.50
2022-11-10T04:29:21.334Z,9.30
2022-11-10T04:31:48.843Z,8.60
2022-11-10T04:34:16.390Z,8.60
2022-11-10T04:36:45.117Z,8.80
2022-11-10T04:39:12.679Z,8.50
2022-11-10T04:41:39.988Z,8.80
2022-11-10T04:44:07.560Z,8.80
2022-11-10T04:46:38.412Z,8.70
2022-11-10T04:49:07.929Z,8.70
2022-11-10T04:51:39.035Z,8.40
2022-11-10T04:54:07.968Z,8.70
2022-11-10T04:56:35.288Z,8.40
2022-11-10T04:59:03.252Z,9.00
2022-11-10T05:01:32.874Z,8.50
2022-11-10T05:04:02.728Z,8.20
2022-11-10T05:06:30.066Z,8.60
2022-11-10T05:08:57.268Z,8.70
2022-11-10T05:11:24.423Z,8.70
2022-11-10T05:13:51.886Z,8.60
2022-11-10T05:16:20.059Z,7.90
2022-11-10T05:18:47.143Z,8.50
2022-11-10T05:21:14.449Z,9.30
2022-11-10T05:23:43.032Z,8.60
2022-11-10T05:26:15.310Z,8.30
2022-11-10T05:28:48.005Z,8.30
2022-11-10T05:31:15.612Z,8.80
2022-11-10T05:33:42.605Z,8.80
2022-11-10T05:36:11.427Z,8.70
2022-11-10T05:38:43.177Z,8.80
2022-11-10T05:41:11.889Z,8.60
2022-11-10T05:43:38.995Z,8.90
2022-11-10T05:46:06.587Z,9.00
2022-11-10T05:48:33.812Z,8.70
2022-11-10T05:51:00.958Z,7.90
2022-11-10T05:53:28.203Z,8.90
2022-11-10T05:55:55.402Z,9.00
2022-11-10T05:58:22.530Z,9.00
2022-11-10T06:00:49.648Z,8.90
2022-11-10T06:03:19.895Z,8.70
2022-11-10T06:05:47.627Z,9.00
2022-11-10T06:08:15.499Z,9.40
2022-11-10T06:10:42.555Z,9.50
2022-11-10T06:13:11.311Z,8.50
2022-11-10T06:15:38.348Z,8.40
2022-11-10T06:18:07.142Z,8.50
2022-11-10T06:20:34.465Z,8.90
2022-11-10T06:23:09.632Z,9.00
2022-11-10T06:25:41.180Z,8.70
2022-11-10T06:28:10.482Z,8.80
2022-11-10T06:30:38.900Z,9.50
2022-11-10T06:33:06.950Z,9.70
2022-11-10T06:35:36.627Z,9.30
2022-11-10T06:38:08.227Z,8.50
2022-11-10T06:40:37.018Z,9.00
2022-11-10T06:43:04.422Z,8.90
2022-11-10T06:45:31.869Z,9.50
2022-11-10T06:48:10.109Z,9.10
2022-11-10T06:50:38.151Z,9.00
2022-11-10T06:53:05.581Z,9.00
2022-11-10T06:55:32.810Z,9.70
2022-11-10T06:58:00.250Z,8.70
2022-11-10T07:00:29.525Z,9.20
2022-11-10T07:03:06.999Z,9.20
2022-11-10T07:05:36.791Z,9.10
2022-11-10T07:08:16.405Z,10.00
2022-11-10T07:10:46.541Z,9.60
2022-11-10T07:13:14.539Z,9.50
2022-11-10T07:15:41.712Z,8.90
2022-11-10T07:18:09.021Z,9.10
2022-11-10T07:20:37.051Z,9.40
2022-11-10T07:23:08.255Z,9.70
2022-11-10T07:25:38.275Z,9.60
2022-11-10T07:28:08.661Z,9.70
2022-11-10T07:30:36.713Z,10.10
2022-11-10T07:33:13.412Z,10.00
2022-11-10T07:35:41.511Z,10.00
2022-11-10T07:38:14.810Z,9.90
2022-11-10T07:40:42.675Z,9.90
2022-11-10T07:43:09.873Z,10.10
2022-11-10T07:45:37.277Z,9.70
2022-11-10T07:48:07.119Z,9.60
2022-11-10T07:50:34.588Z,10.10
2022-11-10T07:53:12.544Z,9.70
2022-11-10T07:55:42.349Z,9.80
2022-11-10T07:58:11.787Z,10.00
2022-11-10T08:00:40.973Z,10.10
2022-11-10T08:03:13.377Z,9.60
2022-11-10T08:05:40.585Z,10.10
2022-11-10T08:08:08.745Z,10.00
2022-11-10T08:10:37.099Z,10.10
2022-11-10T08:13:09.381Z,10.30
2022-11-10T08:15:38.099Z,9.90
2022-11-10T08:18:24.623Z,10.30
2022-11-10T08:20:52.722Z,9.40
2022-11-10T08:23:22.281Z,9.70
2022-11-10T08:25:52.988Z,10.50
2022-11-10T08:28:21.472Z,10.00
2022-11-10T08:30:49.677Z,9.90
2022-11-10T08:33:21.118Z,10.10
2022-11-10T08:35:52.180Z,10.60
2022-11-10T08:38:24.817Z,9.80
2022-11-10T08:40:52.270Z,10.70
2022-11-10T08:43:19.945Z,10.40
2022-11-10T08:45:47.791Z,9.90
2022-11-10T08:48:19.641Z,10.40
2022-11-10T08:50:50.120Z,10.50
2022-11-10T08:53:24.940Z,10.80
2022-11-10T08:55:54.116Z,10.70
2022-11-10T08:58:24.114Z,10.70
2022-11-10T09:00:52.272Z,10.60
2022-11-10T09:03:24.823Z,10.80
2022-11-10T09:05:58.101Z,11.10
2022-11-10T09:08:26.643Z,11.50
2022-11-10T09:10:53.724Z,11.20
2022-11-10T09:13:29.593Z,11.30
2022-11-10T09:16:02.113Z,11.50
2022-11-10T09:18:33.253Z,11.40
2022-11-10T09:21:03.376Z,11.50
2022-11-10T09:23:31.254Z,11.30
2022-11-10T09:25:58.970Z,11.70
2022-11-10T09:28:26.471Z,11.80
2022-11-10T09:30:53.713Z,11.80
2022-11-10T09:33:23.786Z,11.70
2022-11-10T09:35:51.708Z,12.10
2022-11-10T09:38:18.855Z,11.90
2022-11-10T09:41:09.581Z,11.80
2022-11-10T09:44:17.000Z,12.10
2022-11-10T09:46:58.866Z,11.30
2022-11-10T09:49:39.284Z,11.70
2022-11-10T09:52:11.426Z,11.50
2022-11-10T09:55:04.487Z,11.60
2022-11-10T09:57:32.787Z,11.50
2022-11-10T10:00:00.806Z,12.00
2022-11-10T10:02:45.652Z,11.60
2022-11-10T10:05:30.941Z,11.70
2022-11-10T10:08:04.909Z,11.90
2022-11-10T10:11:08.649Z,11.90
2022-11-10T10:14:41.696Z,12.30
2022-11-10T10:17:58.744Z,12.30
2022-11-10T10:20:57.897Z,12.70
2022-11-10T10:24:07.740Z,12.30
2022-11-10T10:26:40.269Z,12.50
2022-11-10T10:29:18.499Z,12.70
2022-11-10T10:31:51.544Z,12.20
2022-11-10T10:34:40.087Z,12.20
2022-11-10T10:37:26.815Z,12.20
2022-11-10T10:39:55.754Z,12.20
2022-11-10T10:42:36.615Z,12.20
2022-11-10T10:45:13.116Z,12.30
2022-11-10T10:47:41.640Z,12.40
2022-11-10T10:50:42.078Z,12.30
2022-11-10T10:53:22.794Z,12.70
2022-11-10T10:56:17.664Z,12.80
2022-11-10T10:59:06.211Z,12.70
2022-11-10T11:01:46.061Z,13.20
2022-11-10T11:04:37.562Z,13.20
2022-11-10T11:07:22.396Z,13.60
2022-11-10T11:09:49.947Z,13.70
2022-11-10T11:12:22.777Z,13.60
2022-11-10T11:14:54.096Z,13.70
2022-11-10T11:17:23.110Z,13.70
2022-11-10T11:19:59.804Z,13.70
2022-11-10T11:23:00.568Z,13.60
2022-11-10T11:25:45.794Z,13.60
2022-11-10T11:28:48.311Z,13.90
2022-11-10T11:31:37.557Z,13.60
2022-11-10T11:34:41.606Z,13.80
2022-11-10T11:37:27.612Z,13.70
2022-11-10T11:40:38.259Z,13.50
2022-11-10T11:43:51.285Z,13.50
2022-11-10T11:46:49.371Z,13.70
2022-11-10T11:49:35.754Z,13.50
2022-11-10T11:52:53.631Z,13.50
2022-11-10T11:55:37.689Z,13.50
2022-11-10T11:58:36.502Z,13.40
2022-11-10T12:01:13.136Z,13.30
2022-11-10T12:04:08.627Z,13.40
2022-11-10T12:06:50.829Z,13.50
2022-11-10T12:09:27.657Z,13.30
2022-11-10T12:12:30.439Z,13.40
2022-11-10T12:15:29.062Z,13.20
2022-11-10T12:18:31.665Z,12.90
2022-11-10T12:21:19.047Z,13.00
2022-11-10T12:24:32.691Z,13.10
2022-11-10T12:28:04.958Z,13.00
2022-11-10T12:30:35.161Z,13.10
2022-11-10T12:33:14.724Z,13.00
2022-11-10T12:35:45.892Z,12.70
2022-11-10T12:38:21.923Z,13.10
2022-11-10T12:40:54.561Z,12.90
2022-11-10T12:43:49.373Z,13.10
2022-11-10T12:46:17.107Z,13.10
2022-11-10T12:49:12.784Z,13.20
2022-11-10T12:51:54.350Z,13.00
2022-11-10T12:54:26.450Z,13.00
2022-11-10T12:57:03.388Z,13.20
2022-11-10T12:59:34.191Z,13.30
2022-11-10T13:02:16.202Z,13.20
2022-11-10T13:04:43.591Z,13.30
2022-11-10T13:07:13.835Z,13.00
2022-11-10T13:09:48.029Z,13.20
2022-11-10T13:12:23.052Z,12.90
2022-11-10T13:14:52.825Z,13.20
2022-11-10T13:17:29.545Z,13.10
2022-11-10T13:20:20.817Z,13.00
2022-11-10T13:22:49.194Z,13.00
2022-11-10T13:25:38.760Z,13.00
2022-11-10T13:28:09.654Z,13.10
2022-11-10T13:30:48.843Z,12.70
2022-11-10T13:33:28.185Z,12.90
2022-11-10T13:35:59.623Z,12.80
2022-11-10T13:38:32.904Z,12.80
2022-11-10T13:41:25.950Z,12.50
2022-11-10T13:43:56.194Z,12.50
2022-11-10T13:46:44.585Z,12.80
2022-11-10T13:49:31.194Z,12.50
2022-11-10T13:52:22.218Z,12.30
2022-11-10T13:55:17.902Z,12.80
2022-11-10T13:58:10.858Z,12.50
2022-11-10T14:00:38.489Z,12.30
2022-11-10T14:03:07.986Z,12.60
2022-11-10T14:05:42.244Z,12.60
2022-11-10T14:08:16.175Z,12.50
2022-11-10T14:10:57.832Z,12.30
2022-11-10T14:13:49.335Z,12.30
2022-11-10T14:16:25.317Z,12.50
2022-11-10T14:19:15.810Z,12.10
2022-11-10T14:22:09.436Z,12.40
2022-11-10T14:25:12.161Z,12.40
2022-11-10T14:27:40.242Z,12.40
2022-11-10T14:30:26.632Z,12.40
2022-11-10T14:33:14.108Z,12.50
2022-11-10T14:36:01.429Z,12.40
2022-11-10T14:38:34.213Z,12.30
2022-11-10T14:41:06.287Z,12.20
2022-11-10T14:43:35.827Z,12.40
2022-11-10T14:46:06.375Z,12.40
2022-11-10T14:48:38.027Z,12.20
2022-11-10T14:51:13.467Z,12.10
2022-11-10T14:53:49.035Z,12.10
2022-11-10T14:56:35.806Z,12.10
2022-11-10T14:59:08.077Z,11.70
2022-11-10T15:01:39.148Z,12.10
2022-11-10T15:04:12.298Z,11.80
2022-11-10T15:06:44.441Z,11.70
2022-11-10T15:09:28.297Z,12.10
2022-11-10T15:12:34.191Z,11.50
2022-11-10T15:15:24.147Z,11.90
2022-11-10T15:17:54.931Z,11.80
2022-11-10T15:20:39.327Z,11.40
2022-11-10T15:23:33.655Z,12.10
2022-11-10T15:26:01.780Z,11.50
2022-11-10T15:28:34.089Z,11.30
2022-11-10T15:31:12.456Z,11.20
2022-11-10T15:33:49.801Z,11.40
2022-11-10T15:36:32.524Z,11.40
2022-11-10T15:39:23.843Z,11.40
2022-11-10T15:41:58.984Z,11.30
2022-11-10T15:44:31.058Z,11.30
2022-11-10T15:47:00.468Z,10.90
2022-11-10T15:49:36.816Z,10.60
2022-11-10T15:52:27.512Z,10.90
2022-11-10T15:54:54.925Z,10.80
2022-11-10T15:57:22.315Z,10.60
2022-11-10T15:59:49.581Z,10.50
2022-11-10T16:02:23.239Z,10.50
2022-11-10T16:04:59.513Z,10.20
2022-11-10T16:07:27.504Z,10.30
2022-11-10T16:09:54.993Z,10.30
2022-11-10T16:12:23.882Z,10.20
2022-11-10T16:14:53.328Z,10.00
2022-11-10T16:17:20.528Z,9.80
2022-11-10T16:19:48.357Z,10.00
2022-11-10T16:22:15.561Z,10.10
2022-11-10T16:24:43.007Z,9.90
2022-11-10T16:27:15.051Z,9.80
2022-11-10T16:29:43.278Z,9.50
2022-11-10T16:32:12.373Z,9.80
2022-11-10T16:34:40.166Z,9.50
2022-11-10T16:37:12.482Z,9.30
2022-11-10T16:39:39.570Z,9.40
2022-11-10T16:42:06.688Z,9.70
2022-11-10T16:44:33.934Z,9.90
2022-11-10T16:47:02.392Z,9.40
2022-11-10T16:49:36.097Z,9.40
2022-11-10T16:52:14.605Z,9.40
2022-11-10T16:54:42.007Z,9.30
2022-11-10T16:57:17.239Z,9.30
2022-11-10T16:59:46.043Z,9.40
2022-11-10T17:02:22.431Z,9.40
2022-11-10T17:04:49.651Z,9.30
2022-11-10T17:07:20.713Z,9.30
2022-11-10T17:09:47.773Z,9.30
2022-11-10T17:12:16.781Z,9.00
2022-11-10T17:14:44.122Z,9.30
2022-11-10T17:17:21.119Z,8.80
2022-11-10T17:19:51.197Z,9.20
2022-11-10T17:22:23.010Z,8.90
2022-11-10T17:24:56.463Z,9.30
2022-11-10T17:27:26.382Z,8.60
2022-11-10T17:29:54.903Z,9.00
2022-11-10T17:32:43.070Z,9.00
2022-11-10T17:35:09.940Z,8.60
2022-11-10T17:37:41.519Z,8.60
2022-11-10T17:40:35.827Z,8.40
2022-11-10T17:43:03.395Z,8.60
2022-11-10T17:45:30.391Z,8.40
2022-11-10T17:47:57.718Z,8.50
2022-11-10T17:50:25.200Z,8.40
2022-11-10T17:52:52.493Z,8.40
2022-11-10T17:55:22.566Z,8.60
2022-11-10T17:57:50.752Z,8.20
2022-11-10T18:00:20.047Z,8.60
2022-11-10T18:02:52.651Z,8.60
2022-11-10T18:05:22.379Z,8.60
2022-11-10T18:07:52.015Z,8.50
2022-11-10T18:10:19.291Z,8.50
2022-11-10T18:12:46.754Z,8.50
2022-11-10T18:15:16.948Z,8.00
2022-11-10T18:17:44.574Z,8.10
2022-11-10T18:20:14.858Z,8.30
2022-11-10T18:22:42.477Z,8.30
2022-11-10T18:25:13.014Z,8.30
2022-11-10T18:27:40.741Z,8.00
2022-11-10T18:30:11.478Z,8.20
2022-11-10T18:32:38.957Z,8.00
2022-11-10T18:35:07.293Z,7.90
2022-11-10T18:37:38.784Z,7.70
2022-11-10T18:40:07.925Z,7.90
2022-11-10T18:42:38.092Z,7.50
2022-11-10T18:45:06.882Z,7.80
2022-11-10T18:47:34.841Z,7.70
2022-11-10T18:50:02.679Z,7.60
2022-11-10T18:52:30.174Z,7.90
2022-11-10T18:55:00.329Z,7.80
2022-11-10T18:57:28.274Z,8.00
2022-11-10T18:59:56.071Z,7.30
2022-11-10T19:02:23.960Z,7.40
2022-11-10T19:04:56.876Z,7.40
2022-11-10T19:07:25.855Z,7.60
2022-11-10T19:09:55.436Z,7.40
2022-11-10T19:12:26.542Z,7.40
2022-11-10T19:14:55.552Z,7.20
2022-11-10T19:17:23.920Z,7.20
2022-11-10T19:19:56.408Z,7.20
2022-11-10T19:22:32.218Z,7.00
2022-11-10T19:25:11.862Z,7.00
2022-11-10T19:27:40.076Z,7.10
2022-11-10T19:30:09.005Z,6.60
2022-11-10T19:32:42.510Z,7.40
2022-11-10T19:35:12.497Z,6.90
2022-11-10T19:37:40.923Z,7.20
2022-11-10T19:43:11.244Z,6.80
2022-11-10T19:45:40.252Z,6.70
2022-11-10T19:48:10.623Z,6.90
2022-11-10T19:50:38.791Z,7.00
2022-11-10T19:53:09.090Z,7.20
2022-11-10T19:55:38.166Z,6.40
2022-11-10T19:58:06.642Z,7.00
2022-11-10T20:00:38.307Z,6.50
2022-11-10T20:03:12.287Z,6.70
2022-11-10T20:05:46.428Z,6.60
2022-11-10T20:08:16.023Z,6.80
2022-11-10T20:10:54.781Z,6.60
2022-11-10T20:13:23.144Z,6.20
2022-11-10T20:15:58.710Z,6.50
2022-11-10T20:18:27.061Z,6.40
2022-11-10T20:20:55.631Z,6.00
2022-11-10T20:23:23.768Z,6.00
2022-11-10T20:26:09.815Z,6.30
2022-11-10T20:28:40.147Z,6.30
2022-11-10T20:31:24.653Z,6.30
2022-11-10T20:33:56.625Z,6.30
2022-11-10T20:36:32.043Z,6.20
2022-11-10T20:39:00.765Z,6.40
2022-11-10T20:41:30.127Z,5.90
2022-11-10T20:43:57.456Z,6.40
2022-11-10T20:46:52.928Z,6.30
2022-11-10T20:49:12.464Z,6.10
2022-11-10T20:51:42.818Z,5.80
2022-11-10T20:54:11.255Z,5.80
2022-11-10T20:56:38.514Z,6.10
2022-11-10T20:59:06.140Z,6.10
2022-11-10T21:01:34.099Z,6.20
2022-11-10T21:04:02.984Z,5.90
2022-11-10T21:06:30.468Z,6.00
2022-11-10T21:08:57.845Z,5.80
2022-11-10T21:11:44.437Z,5.90
2022-11-10T21:14:12.146Z,5.90
2022-11-10T21:16:39.702Z,5.70
2022-11-10T21:19:07.616Z,5.70
2022-11-10T21:21:36.209Z,5.90
2022-11-10T21:24:05.297Z,5.70
2022-11-10T21:26:38.017Z,5.80
2022-11-10T21:29:08.344Z,5.70
2022-11-10T21:31:36.259Z,5.80
2022-11-10T21:34:03.769Z,5.80
2022-11-10T21:36:31.744Z,5.30
2022-11-10T21:38:59.990Z,5.30
2022-11-10T21:41:27.428Z,5.20
2022-11-10T21:43:55.415Z,5.60
2022-11-10T21:46:22.963Z,5.30
2022-11-10T21:48:51.739Z,5.40
2022-11-10T21:51:22.528Z,5.20
2022-11-10T21:53:50.304Z,5.20
2022-11-10T21:56:17.900Z,5.20
2022-11-10T21:58:45.009Z,5.30
2022-11-10T22:01:22.079Z,5.50
2022-11-10T22:03:50.264Z,5.30
2022-11-10T22:06:19.542Z,5.40
2022-11-10T22:08:48.186Z,5.30
2022-11-10T22:11:39.934Z,5.20
2022-11-10T22:14:32.349Z,5.00
2022-11-10T22:17:19.090Z,5.30
2022-11-10T22:19:46.877Z,5.30
2022-11-10T22:22:17.185Z,5.10
2022-11-10T22:24:44.543Z,4.90
2022-11-10T22:27:11.743Z,4.90
2022-11-10T22:29:39.160Z,4.70
2022-11-10T22:32:06.465Z,5.30
2022-11-10T22:34:33.932Z,5.10
2022-11-10T22:37:01.895Z,5.10
2022-11-10T22:39:48.529Z,5.10
2022-11-10T22:42:34.677Z,4.80
2022-11-10T22:45:02.184Z,4.80
2022-11-10T22:47:49.831Z,4.80
2022-11-10T22:50:17.020Z,4.90
2022-11-10T22:52:44.177Z,4.70
2022-11-10T22:55:11.533Z,4.80
2022-11-10T22:57:39.026Z,4.80
2022-11-10T23:00:08.968Z,4.40
2022-11-10T23:02:37.129Z,4.80
2022-11-10T23:05:04.834Z,4.60
2022-11-10T23:07:32.414Z,4.80
2022-11-10T23:09:59.926Z,4.80
2022-11-10T23:12:27.498Z,4.80
2022-11-10T23:14:55.812Z,4.50
2022-11-10T23:17:23.035Z,4.60
2022-11-10T23:19:50.169Z,4.80
2022-11-10T23:56:50.035Z,4.00
